Time;durP1;ratioP1;P1;durP2;ratioP2;P2;SDS_P1;SDS_P2;PMS_P1;PMS_P2;Temp;Humidity;BMP_temperature;BMP_pressure;BME280_temperature;BME280_humidity;BME280_pressure;Samples;Min_cycle;Max_cycle;Signal;HPM_P1;HPM_P2
2022/11/06 00:00:14;;;;;;;0.43;0.40;;;14.00;99.90;;;;;;5021679;28;20050;-86
2022/11/06 00:02:40;;;;;;;0.65;0.60;;;14.00;99.90;;;;;;5030583;28;20045;-86
2022/11/06 00:07:53;;;;;;;0.60;0.40;;;14.00;99.90;;;;;;5019485;28;20080;-86
2022/11/06 00:10:20;;;;;;;0.60;0.52;;;14.10;99.90;;;;;;5018419;28;20068;-87
2022/11/06 00:12:46;;;;;;;0.85;0.40;;;14.10;99.90;;;;;;5026201;28;20057;-87
2022/11/06 00:15:13;;;;;;;0.98;0.63;;;14.10;99.90;;;;;;5016343;28;20216;-86
2022/11/06 00:17:40;;;;;;;0.70;0.50;;;14.10;99.90;;;;;;5023796;28;20064;-86
2022/11/06 00:20:07;;;;;;;1.10;0.55;;;14.10;99.90;;;;;;5022900;28;20053;-86
2022/11/06 00:22:34;;;;;;;0.77;0.50;;;14.10;99.90;;;;;;5026980;28;20405;-86
2022/11/06 00:25:02;;;;;;;1.40;0.73;;;14.10;99.90;;;;;;5038292;28;20049;-87
2022/11/06 00:27:29;;;;;;;0.45;0.30;;;14.00;99.90;;;;;;5018189;28;20060;-86
2022/11/06 00:29:56;;;;;;;0.75;0.60;;;14.10;99.90;;;;;;5018945;28;20505;-86
2022/11/06 00:32:22;;;;;;;0.47;0.40;;;14.10;99.90;;;;;;5040732;28;20585;-87
2022/11/06 00:34:49;;;;;;;0.65;0.40;;;14.00;99.90;;;;;;5038377;28;20393;-86
2022/11/06 00:37:16;;;;;;;0.95;0.47;;;14.10;99.90;;;;;;5023344;28;20058;-86
2022/11/06 00:39:42;;;;;;;0.90;0.50;;;14.00;99.90;;;;;;5027500;28;20052;-86
2022/11/06 00:42:09;;;;;;;0.40;0.40;;;14.10;99.90;;;;;;5032474;28;20129;-87
2022/11/06 00:44:36;;;;;;;0.60;0.35;;;14.10;99.90;;;;;;5019368;28;20057;-86
2022/11/06 00:47:03;;;;;;;0.45;0.38;;;14.10;99.90;;;;;;5039249;28;20557;-86
2022/11/06 00:49:30;;;;;;;0.55;0.43;;;14.10;99.90;;;;;;5039287;28;20063;-85
2022/11/06 00:51:57;;;;;;;1.95;0.63;;;14.10;99.90;;;;;;5017513;28;20214;-85
2022/11/06 00:54:23;;;;;;;0.40;0.40;;;14.10;99.90;;;;;;5019661;28;20045;-85
2022/11/06 00:56:50;;;;;;;0.40;0.40;;;14.00;99.90;;;;;;5021018;28;20053;-85
2022/11/06 00:59:17;;;;;;;0.50;0.40;;;14.00;99.90;;;;;;5024039;28;20041;-86
2022/11/06 01:01:44;;;;;;;0.40;0.40;;;14.00;99.90;;;;;;5021527;28;20063;-86
2022/11/06 01:04:12;;;;;;;0.40;0.40;;;14.10;99.90;;;;;;5037837;28;20698;-86
2022/11/06 01:06:41;;;;;;;0.90;0.60;;;14.00;99.90;;;;;;5027032;28;20045;-86
2022/11/06 01:09:09;;;;;;;0.70;0.60;;;14.00;99.90;;;;;;5020124;28;20481;-86
2022/11/06 01:11:37;;;;;;;0.73;0.50;;;14.10;99.90;;;;;;5016060;28;20064;-86
2022/11/06 01:14:24;;;;;;;0.45;0.45;;;14.00;99.90;;;;;;5016741;28;20072;-86
2022/11/06 01:16:51;;;;;;;0.68;0.60;;;14.10;99.90;;;;;;5018955;28;20446;-87
2022/11/06 01:19:19;;;;;;;0.75;0.40;;;14.10;99.90;;;;;;5020138;28;20128;-86
2022/11/06 01:21:47;;;;;;;0.95;0.60;;;14.10;99.90;;;;;;5017198;28;20045;-87
2022/11/06 01:24:18;;;;;;;2.58;0.85;;;14.10;99.90;;;;;;5040563;28;20065;-86
2022/11/06 01:26:45;;;;;;;0.73;0.68;;;14.10;99.90;;;;;;5021891;28;20041;-87
2022/11/06 01:29:32;;;;;;;1.33;0.70;;;14.10;99.90;;;;;;5019542;28;20164;-86
2022/11/06 01:31:59;;;;;;;0.80;0.60;;;14.20;99.90;;;;;;5020188;28;20049;-87
2022/11/06 01:34:26;;;;;;;0.43;0.43;;;14.20;99.90;;;;;;5001316;28;20064;-86
2022/11/06 01:36:52;;;;;;;0.88;0.60;;;14.20;99.90;;;;;;5020555;28;20052;-87
2022/11/06 01:39:19;;;;;;;1.45;0.60;;;14.20;99.90;;;;;;5030041;28;20060;-87
2022/11/06 01:41:48;;;;;;;0.50;0.50;;;14.20;99.90;;;;;;5031013;28;20061;-87
2022/11/06 01:44:39;;;;;;;0.60;0.60;;;14.20;99.90;;;;;;5021758;28;20048;-88
2022/11/06 01:47:22;;;;;;;0.85;0.60;;;14.20;99.90;;;;;;5040928;28;20617;-87
2022/11/06 01:49:50;;;;;;;1.20;0.73;;;14.30;99.90;;;;;;5029581;28;20502;-87
2022/11/06 01:52:17;;;;;;;1.35;0.57;;;14.20;99.90;;;;;;5020914;28;20042;-87
2022/11/06 01:54:44;;;;;;;0.50;0.50;;;14.30;99.90;;;;;;5033349;28;20049;-86
2022/11/06 01:57:11;;;;;;;0.65;0.50;;;14.30;99.90;;;;;;5011463;28;20059;-85
2022/11/06 01:59:40;;;;;;;0.40;0.40;;;14.30;99.90;;;;;;5011122;28;20049;-86
2022/11/06 02:02:07;;;;;;;0.65;0.50;;;14.30;99.90;;;;;;5019782;28;20056;-88
2022/11/06 02:04:37;;;;;;;1.17;0.63;;;14.30;99.90;;;;;;5041875;28;20072;-88
2022/11/06 02:07:04;;;;;;;0.68;0.60;;;14.20;99.90;;;;;;5027356;28;20053;-86
2022/11/06 02:09:31;;;;;;;1.38;0.55;;;14.20;99.90;;;;;;5017335;28;20045;-88
2022/11/06 02:12:17;;;;;;;0.75;0.68;;;14.20;99.90;;;;;;5014293;28;20392;-87
2022/11/06 02:14:47;;;;;;;0.50;0.40;;;14.20;99.90;;;;;;5040107;28;20111;-87
2022/11/06 02:17:28;;;;;;;0.50;0.50;;;14.20;99.90;;;;;;5015411;28;20390;-88
2022/11/06 02:20:12;;;;;;;0.40;0.40;;;14.20;99.90;;;;;;5009649;28;20057;-87
2022/11/06 02:23:16;;;;;;;0.57;0.57;;;14.20;99.90;;;;;;5026108;28;20049;-87
2022/11/06 02:26:17;;;;;;;0.40;0.40;;;14.20;99.90;;;;;;5034797;28;20207;-88
2022/11/06 02:28:49;;;;;;;0.40;0.40;;;14.20;99.90;;;;;;5028802;28;20057;-86
2022/11/06 02:31:19;;;;;;;1.90;0.57;;;14.20;99.90;;;;;;5009667;28;20057;-87
2022/11/06 02:33:48;;;;;;;0.55;0.55;;;14.20;99.90;;;;;;5040598;28;20049;-86
2022/11/06 02:36:17;;;;;;;0.77;0.60;;;14.20;99.90;;;;;;5016336;28;20049;-86
2022/11/06 02:38:46;;;;;;;0.40;0.40;;;14.20;99.90;;;;;;5029810;28;20163;-87
2022/11/06 02:41:30;;;;;;;1.42;0.70;;;14.20;99.90;;;;;;5022571;28;20049;-87
2022/11/06 02:43:58;;;;;;;0.82;0.57;;;14.20;99.90;;;;;;5040680;28;20045;-87
2022/11/06 02:46:26;;;;;;;0.88;0.70;;;14.20;99.90;;;;;;5022013;28;20128;-86
2022/11/06 02:48:57;;;;;;;1.10;0.75;;;14.20;99.90;;;;;;5031087;28;20049;-84
2022/11/06 02:51:27;;;;;;;1.83;1.00;;;14.20;99.90;;;;;;5002397;28;20466;-85
2022/11/06 02:53:53;;;;;;;0.77;0.75;;;14.20;99.90;;;;;;5017814;28;20132;-86
2022/11/06 02:56:23;;;;;;;0.80;0.70;;;14.20;99.90;;;;;;5028555;28;20042;-86
2022/11/06 02:58:56;;;;;;;0.60;0.60;;;14.20;99.90;;;;;;5029489;28;20049;-85
2022/11/06 03:01:32;;;;;;;0.90;0.70;;;14.20;99.90;;;;;;5043787;28;20057;-86
2022/11/06 03:04:02;;;;;;;0.70;0.50;;;14.20;99.90;;;;;;5035699;28;20472;-86
2022/11/06 03:06:33;;;;;;;0.80;0.60;;;14.20;99.90;;;;;;5034376;28;20437;-86
2022/11/06 03:09:03;;;;;;;0.68;0.52;;;14.20;99.90;;;;;;5012205;28;20050;-85
2022/11/06 03:11:40;;;;;;;0.38;0.38;;;14.20;99.90;;;;;;5028347;28;20053;-85
2022/11/06 03:14:13;;;;;;;0.70;0.60;;;14.20;99.90;;;;;;5039483;28;20045;-85
2022/11/06 03:16:59;;;;;;;1.00;0.60;;;14.20;99.90;;;;;;5035889;28;20136;-85
2022/11/06 03:19:28;;;;;;;0.60;0.60;;;14.20;99.90;;;;;;5028911;28;20056;-85
2022/11/06 03:22:21;;;;;;;0.30;0.30;;;14.20;99.90;;;;;;5026639;28;20055;-85
2022/11/06 03:24:51;;;;;;;0.65;0.50;;;14.20;99.90;;;;;;5029014;28;20496;-85
2022/11/06 03:27:31;;;;;;;0.90;0.50;;;14.20;99.90;;;;;;5045959;28;20056;-85
2022/11/06 03:30:07;;;;;;;1.08;0.63;;;14.20;99.90;;;;;;5047421;28;20056;-86
2022/11/06 03:32:54;;;;;;;1.00;0.60;;;14.20;99.90;;;;;;5028018;28;20065;-84
2022/11/06 03:35:27;;;;;;;1.10;0.70;;;14.20;99.90;;;;;;5034400;28;20148;-84
2022/11/06 03:38:08;;;;;;;0.45;0.40;;;14.20;99.90;;;;;;5032093;28;20053;-86
2022/11/06 03:40:37;;;;;;;0.60;0.60;;;14.20;99.90;;;;;;5040790;28;20049;-86
2022/11/06 03:43:04;;;;;;;0.47;0.40;;;14.20;99.90;;;;;;5030063;28;20049;-85
2022/11/06 03:45:31;;;;;;;0.55;0.43;;;14.20;99.90;;;;;;5026258;28;20049;-87
2022/11/06 03:48:21;;;;;;;0.77;0.70;;;14.20;99.90;;;;;;5029705;28;20380;-85
2022/11/06 03:51:02;;;;;;;1.08;0.55;;;14.20;99.90;;;;;;5000657;28;1182055;-81
2022/11/06 03:53:39;;;;;;;1.08;0.55;;;14.20;99.90;;;;;;5026327;28;20057;-81
2022/11/06 03:56:13;;;;;;;0.90;0.60;;;14.20;99.90;;;;;;5015740;28;20053;-81
2022/11/06 03:58:43;;;;;;;0.80;0.60;;;14.10;99.90;;;;;;5027695;28;20077;-82
2022/11/06 04:01:10;;;;;;;0.60;0.50;;;14.10;99.90;;;;;;5009113;28;20052;-82
2022/11/06 04:03:55;;;;;;;0.57;0.43;;;14.10;99.90;;;;;;5015865;28;20135;-81
2022/11/06 04:06:26;;;;;;;0.50;0.45;;;14.10;99.90;;;;;;5018878;28;20053;-81
2022/11/06 04:14:06;;;;;;;0.40;0.40;;;14.00;99.90;;;;;;5036386;28;20045;-82
2022/11/06 04:16:35;;;;;;;0.85;0.60;;;14.00;99.90;;;;;;5030983;28;20080;-81
2022/11/06 04:19:01;;;;;;;1.00;0.70;;;14.00;99.90;;;;;;5026360;28;20428;-82
2022/11/06 04:21:42;;;;;;;0.98;0.60;;;14.00;99.90;;;;;;5027681;28;20045;-82
2022/11/06 04:27:13;;;;;;;1.45;0.70;;;14.00;99.90;;;;;;5028178;28;20050;-81
2022/11/06 04:30:06;;;;;;;0.57;0.57;;;14.00;99.90;;;;;;5026980;28;20053;-83
2022/11/06 04:32:35;;;;;;;0.95;0.80;;;14.00;99.90;;;;;;5027862;28;20053;-82
2022/11/06 04:35:23;;;;;;;0.60;0.50;;;14.00;99.90;;;;;;5029501;28;20045;-83
2022/11/06 04:38:02;;;;;;;0.63;0.50;;;14.00;99.90;;;;;;5028353;28;20053;-83
2022/11/06 04:40:35;;;;;;;0.40;0.40;;;14.00;99.90;;;;;;5012198;28;20041;-82
2022/11/06 04:43:05;;;;;;;0.63;0.50;;;14.00;99.90;;;;;;5028810;28;20053;-86
2022/11/06 04:45:37;;;;;;;0.77;0.40;;;14.00;99.90;;;;;;5011219;28;20053;-84
2022/11/06 04:48:04;;;;;;;0.73;0.30;;;14.00;99.90;;;;;;5031007;28;20057;-84
2022/11/06 04:50:34;;;;;;;0.38;0.38;;;14.10;99.90;;;;;;5023121;28;20908;-83
2022/11/06 04:53:02;;;;;;;0.30;0.30;;;14.10;99.90;;;;;;5029302;28;20057;-83
2022/11/06 04:55:29;;;;;;;0.35;0.32;;;14.10;99.90;;;;;;5037846;28;20052;-83
2022/11/06 04:57:55;;;;;;;0.40;0.40;;;14.10;99.90;;;;;;5027790;28;20057;-83
2022/11/06 05:00:22;;;;;;;0.45;0.45;;;14.10;99.90;;;;;;5011845;28;20073;-84
2022/11/06 05:02:49;;;;;;;0.88;0.43;;;14.10;99.90;;;;;;5033742;28;20048;-84
2022/11/06 05:05:15;;;;;;;0.82;0.40;;;14.10;99.90;;;;;;5028881;28;20195;-83
2022/11/06 05:07:42;;;;;;;0.95;0.73;;;14.10;99.90;;;;;;5028271;28;20056;-82
2022/11/06 05:10:09;;;;;;;0.95;0.60;;;14.10;99.90;;;;;;5046564;28;20154;-85
2022/11/06 05:12:35;;;;;;;1.10;0.50;;;14.10;99.90;;;;;;5029859;28;20049;-83
2022/11/06 05:15:03;;;;;;;1.50;0.60;;;14.20;99.90;;;;;;5044804;28;20052;-85
2022/11/06 05:17:29;;;;;;;1.08;0.70;;;14.20;99.90;;;;;;5049059;28;20067;-83
2022/11/06 05:20:02;;;;;;;1.58;0.70;;;14.20;99.90;;;;;;5048137;28;20049;-83
2022/11/06 05:25:14;;;;;;;1.35;0.77;;;14.20;99.90;;;;;;5047401;28;20045;-83
2022/11/06 05:27:41;;;;;;;1.10;0.70;;;14.20;99.90;;;;;;5011510;28;20452;-82
2022/11/06 05:30:08;;;;;;;0.75;0.50;;;14.20;99.90;;;;;;5030976;28;20072;-83
2022/11/06 05:32:35;;;;;;;1.80;0.80;;;14.20;99.90;;;;;;5026975;28;20440;-82
2022/11/06 05:35:01;;;;;;;1.13;0.50;;;14.10;99.90;;;;;;5027738;28;20048;-82
2022/11/06 05:37:28;;;;;;;1.10;0.70;;;14.10;99.90;;;;;;5032682;28;20053;-82
2022/11/06 05:39:55;;;;;;;0.85;0.73;;;14.10;99.90;;;;;;5040833;28;20045;-83
2022/11/06 05:42:21;;;;;;;1.45;0.77;;;14.10;99.90;;;;;;5049074;28;20049;-83
2022/11/06 05:44:48;;;;;;;1.50;0.77;;;14.10;99.90;;;;;;5047769;28;20493;-84
2022/11/06 05:47:15;;;;;;;1.30;0.60;;;14.10;99.90;;;;;;5031679;28;20096;-85
2022/11/06 05:49:42;;;;;;;0.40;0.40;;;14.10;99.90;;;;;;5040512;28;20052;-85
2022/11/06 05:52:08;;;;;;;1.23;0.60;;;14.10;99.90;;;;;;5048109;28;20126;-85
2022/11/06 05:54:35;;;;;;;0.45;0.40;;;14.00;99.90;;;;;;5041440;28;20060;-85
2022/11/06 05:57:03;;;;;;;0.50;0.50;;;14.00;99.90;;;;;;5055811;28;20041;-86
2022/11/06 05:59:29;;;;;;;1.27;0.40;;;14.00;99.90;;;;;;5041969;28;20109;-85
2022/11/06 06:01:58;;;;;;;0.52;0.43;;;14.00;99.90;;;;;;5041277;28;20041;-85
2022/11/06 06:04:25;;;;;;;1.98;0.88;;;14.00;99.90;;;;;;5041516;28;20053;-85
2022/11/06 06:06:51;;;;;;;0.52;0.52;;;14.00;99.90;;;;;;5025474;28;20057;-85
2022/11/06 06:09:18;;;;;;;0.73;0.60;;;14.00;99.90;;;;;;5038989;28;20061;-86
2022/11/06 06:11:45;;;;;;;0.73;0.60;;;14.00;99.90;;;;;;5050604;28;20053;-86
2022/11/06 06:14:12;;;;;;;1.08;0.57;;;14.00;99.90;;;;;;5021604;28;20555;-86
2022/11/06 06:16:38;;;;;;;0.80;0.65;;;14.10;99.90;;;;;;5024117;28;20149;-86
2022/11/06 06:19:05;;;;;;;0.85;0.80;;;14.10;99.90;;;;;;5031123;28;20140;-86
2022/11/06 06:21:32;;;;;;;0.98;0.60;;;14.10;99.90;;;;;;5020428;28;20053;-85
2022/11/06 06:23:58;;;;;;;0.88;0.70;;;14.10;99.90;;;;;;5020349;28;20433;-84
2022/11/06 06:26:25;;;;;;;1.15;0.70;;;14.10;99.90;;;;;;5038468;28;20051;-85
2022/11/06 06:28:52;;;;;;;0.55;0.55;;;14.10;99.90;;;;;;5039213;28;20069;-86
2022/11/06 06:31:19;;;;;;;0.68;0.57;;;14.10;99.90;;;;;;5005691;28;20095;-86
2022/11/06 06:33:46;;;;;;;1.08;0.77;;;14.10;99.90;;;;;;5018607;28;20049;-85
2022/11/06 06:36:12;;;;;;;0.82;0.60;;;14.10;99.90;;;;;;5028185;28;20076;-85
2022/11/06 06:38:39;;;;;;;0.70;0.50;;;14.10;99.90;;;;;;5027206;28;20057;-84
2022/11/06 06:41:07;;;;;;;0.80;0.57;;;14.10;99.90;;;;;;5043212;28;20056;-84
2022/11/06 06:43:34;;;;;;;1.45;0.60;;;14.10;99.90;;;;;;5038299;28;20075;-84
2022/11/06 06:46:04;;;;;;;1.10;0.50;;;14.10;99.90;;;;;;5030832;28;20052;-84
2022/11/06 06:48:31;;;;;;;2.45;0.75;;;14.20;99.90;;;;;;5030684;28;20063;-85
2022/11/06 06:50:59;;;;;;;1.00;0.50;;;14.10;99.90;;;;;;5049711;28;20064;-85
2022/11/06 06:53:25;;;;;;;1.17;0.52;;;14.10;99.90;;;;;;5020239;28;20605;-85
2022/11/06 06:55:52;;;;;;;1.25;0.70;;;14.10;99.90;;;;;;4998955;28;20056;-85
2022/11/06 06:58:19;;;;;;;1.88;0.90;;;14.20;99.90;;;;;;5008675;28;20443;-86
2022/11/06 07:00:46;;;;;;;1.17;0.60;;;14.10;99.90;;;;;;5031247;28;20126;-86
2022/11/06 07:03:13;;;;;;;1.30;0.68;;;14.20;99.90;;;;;;5046492;28;20060;-86
2022/11/06 07:05:40;;;;;;;1.23;0.70;;;14.20;99.90;;;;;;5028752;28;20049;-86
2022/11/06 07:08:07;;;;;;;0.60;0.55;;;14.20;99.90;;;;;;5049177;28;20053;-87
2022/11/06 07:10:33;;;;;;;0.43;0.43;;;14.20;99.90;;;;;;5042146;28;20057;-86
2022/11/06 07:13:01;;;;;;;1.23;0.73;;;14.20;99.90;;;;;;5028242;28;20046;-85
2022/11/06 07:15:28;;;;;;;2.10;0.70;;;14.20;99.90;;;;;;5031808;28;20075;-87
2022/11/06 07:17:59;;;;;;;1.20;0.77;;;14.20;99.90;;;;;;5043460;28;20151;-87
2022/11/06 07:20:26;;;;;;;1.67;0.70;;;14.20;99.90;;;;;;5017918;28;20041;-89
2022/11/06 07:22:53;;;;;;;1.17;0.85;;;14.30;99.90;;;;;;5032842;28;20052;-88
2022/11/06 07:25:19;;;;;;;2.40;0.85;;;14.20;99.90;;;;;;5032208;28;20124;-88
2022/11/06 07:27:46;;;;;;;1.00;0.70;;;14.20;99.90;;;;;;5043498;28;20081;-89
2022/11/06 07:30:13;;;;;;;2.22;1.00;;;14.30;99.90;;;;;;5031839;28;20129;-88
2022/11/06 07:32:40;;;;;;;1.45;0.90;;;14.30;99.90;;;;;;5032153;28;20479;-88
2022/11/06 07:35:07;;;;;;;1.95;1.10;;;14.30;99.90;;;;;;5029136;28;20048;-89
2022/11/06 07:37:34;;;;;;;3.97;1.23;;;14.30;99.90;;;;;;5046162;28;20049;-90
2022/11/06 07:40:01;;;;;;;1.38;0.82;;;14.30;99.90;;;;;;5010070;28;20056;-90
2022/11/06 07:42:28;;;;;;;3.45;1.08;;;14.30;99.90;;;;;;5032218;28;20064;-88
2022/11/06 07:44:55;;;;;;;0.82;0.80;;;14.30;99.90;;;;;;5034107;28;20212;-88
2022/11/06 07:47:22;;;;;;;1.73;0.80;;;14.40;99.90;;;;;;5031751;28;20071;-89
2022/11/06 07:49:48;;;;;;;0.88;0.50;;;14.40;99.90;;;;;;5038847;28;20061;-89
2022/11/06 07:52:17;;;;;;;1.88;0.80;;;14.40;99.90;;;;;;5028419;28;20053;-88
2022/11/06 07:54:43;;;;;;;1.77;0.60;;;14.40;99.90;;;;;;5023737;28;20045;-89
2022/11/06 07:57:10;;;;;;;1.27;0.77;;;14.40;99.90;;;;;;5042821;28;20121;-88
2022/11/06 07:59:37;;;;;;;1.17;0.80;;;14.40;99.90;;;;;;5050313;28;20056;-88
2022/11/06 08:02:03;;;;;;;1.42;0.80;;;14.40;99.90;;;;;;5032898;28;20041;-89
2022/11/06 08:04:30;;;;;;;2.13;1.17;;;14.40;99.90;;;;;;5047518;28;20080;-87
2022/11/06 08:06:57;;;;;;;3.00;1.27;;;14.40;99.90;;;;;;5049488;28;20045;-87
2022/11/06 08:09:24;;;;;;;2.95;1.17;;;14.40;99.90;;;;;;5045167;28;20849;-88
2022/11/06 08:11:51;;;;;;;3.03;1.42;;;14.30;99.90;;;;;;5044560;28;20128;-89
2022/11/06 08:14:17;;;;;;;1.90;1.10;;;14.30;99.90;;;;;;5039664;28;20052;-86
2022/11/06 08:16:44;;;;;;;2.10;1.20;;;14.30;99.90;;;;;;5044405;28;20071;-86
2022/11/06 08:19:11;;;;;;;2.50;1.20;;;14.30;99.90;;;;;;5041097;28;20057;-87
2022/11/06 08:21:38;;;;;;;3.10;1.30;;;14.30;99.90;;;;;;5036235;28;20041;-87
2022/11/06 08:24:05;;;;;;;3.38;1.27;;;14.30;99.90;;;;;;5038886;28;20087;-85
2022/11/06 08:26:32;;;;;;;2.28;1.60;;;14.30;99.90;;;;;;5017565;28;20488;-83
2022/11/06 08:28:59;;;;;;;2.38;1.23;;;14.30;99.90;;;;;;5039279;28;20053;-79
2022/11/06 08:31:27;;;;;;;2.03;1.10;;;14.30;99.90;;;;;;5027827;28;20496;-80
2022/11/06 08:33:53;;;;;;;1.92;1.15;;;14.20;99.90;;;;;;5028842;28;20041;-78
2022/11/06 08:36:20;;;;;;;2.60;1.40;;;14.20;99.90;;;;;;5031985;28;20049;-79
2022/11/06 08:38:47;;;;;;;2.08;0.93;;;14.20;99.90;;;;;;5024680;28;20050;-80
2022/11/06 08:41:14;;;;;;;1.75;0.90;;;14.10;99.90;;;;;;5016841;28;20433;-79
2022/11/06 08:43:40;;;;;;;2.20;1.25;;;14.10;99.90;;;;;;5038528;28;20217;-79
2022/11/06 08:46:08;;;;;;;2.53;1.30;;;14.00;99.90;;;;;;5034804;28;20041;-78
2022/11/06 08:48:35;;;;;;;1.95;1.23;;;14.00;99.90;;;;;;5012905;28;20053;-78
2022/11/06 08:51:02;;;;;;;1.77;1.02;;;14.00;99.90;;;;;;5006194;28;20523;-78
2022/11/06 08:53:29;;;;;;;1.42;0.88;;;13.90;99.90;;;;;;5012933;28;20101;-78
2022/11/06 08:55:56;;;;;;;1.85;1.20;;;13.90;99.90;;;;;;5032908;28;20128;-78
2022/11/06 08:58:23;;;;;;;1.70;0.93;;;13.90;99.90;;;;;;5030595;28;20052;-78
2022/11/06 09:00:49;;;;;;;1.23;0.90;;;13.90;99.90;;;;;;5031477;28;20060;-78
2022/11/06 09:03:16;;;;;;;1.85;0.90;;;13.90;99.90;;;;;;5022879;28;20468;-78
2022/11/06 09:05:43;;;;;;;1.33;0.90;;;13.90;99.90;;;;;;5024747;28;20099;-78
2022/11/06 09:08:10;;;;;;;0.77;0.65;;;13.90;99.90;;;;;;5021892;28;20141;-78
2022/11/06 09:10:38;;;;;;;0.98;0.70;;;13.90;99.90;;;;;;5038537;28;20696;-79
2022/11/06 09:13:04;;;;;;;0.95;0.70;;;13.90;99.90;;;;;;5022579;28;20057;-79
2022/11/06 09:15:31;;;;;;;0.60;0.60;;;13.90;99.90;;;;;;5030702;28;20605;-77
2022/11/06 09:17:58;;;;;;;0.77;0.50;;;13.80;99.90;;;;;;5024728;28;20086;-77
2022/11/06 09:20:25;;;;;;;0.50;0.40;;;13.80;99.90;;;;;;5034628;28;20072;-78
2022/11/06 09:22:52;;;;;;;0.88;0.40;;;13.80;99.90;;;;;;5015302;28;20076;-78
2022/11/06 09:25:18;;;;;;;0.50;0.50;;;13.80;99.90;;;;;;5020545;28;20061;-79
2022/11/06 09:27:51;;;;;;;0.40;0.30;;;13.80;99.90;;;;;;5018291;28;20511;-77
2022/11/06 09:30:24;;;;;;;0.47;0.45;;;13.90;99.90;;;;;;5025474;28;20504;-77
2022/11/06 09:32:53;;;;;;;0.63;0.50;;;13.90;99.90;;;;;;5020195;28;20060;-77
2022/11/06 09:35:20;;;;;;;0.55;0.47;;;13.90;99.90;;;;;;5020249;28;20063;-76
2022/11/06 09:37:47;;;;;;;1.00;0.50;;;13.90;99.90;;;;;;5028580;28;20049;-77
2022/11/06 09:40:26;;;;;;;0.50;0.40;;;13.90;99.90;;;;;;5025798;28;20045;-77
2022/11/06 09:43:18;;;;;;;0.63;0.50;;;13.90;99.90;;;;;;5027236;28;20042;-77
2022/11/06 09:46:25;;;;;;;0.68;0.60;;;13.90;99.90;;;;;;5028669;28;20045;-77
2022/11/06 09:49:15;;;;;;;0.70;0.40;;;13.90;99.90;;;;;;5025139;28;20051;-77
2022/11/06 09:51:47;;;;;;;0.40;0.40;;;13.90;99.90;;;;;;5007703;28;20068;-75
2022/11/06 09:54:19;;;;;;;0.57;0.45;;;13.80;99.90;;;;;;5012639;28;20056;-79
2022/11/06 09:56:47;;;;;;;0.70;0.50;;;13.80;99.90;;;;;;5014369;28;20053;-78
2022/11/06 09:59:15;;;;;;;1.13;0.60;;;13.80;99.90;;;;;;5003179;28;20057;-77
2022/11/06 10:01:49;;;;;;;0.50;0.50;;;13.80;99.90;;;;;;5001323;28;20851;-77
2022/11/06 10:04:33;;;;;;;1.33;0.50;;;13.80;99.90;;;;;;5007623;28;20057;-75
2022/11/06 10:07:00;;;;;;;0.52;0.40;;;13.80;99.90;;;;;;5008821;28;20041;-75
2022/11/06 10:09:27;;;;;;;0.47;0.40;;;13.70;99.90;;;;;;5008516;28;20054;-77
2022/11/06 10:12:01;;;;;;;0.55;0.40;;;13.70;99.90;;;;;;5008058;28;20077;-78
2022/11/06 10:14:28;;;;;;;0.65;0.65;;;13.70;99.90;;;;;;5007459;28;20046;-77
2022/11/06 10:16:58;;;;;;;0.60;0.60;;;13.60;99.90;;;;;;5002743;28;20099;-78
2022/11/06 10:19:43;;;;;;;0.50;0.40;;;13.60;99.90;;;;;;5017407;28;20049;-79
2022/11/06 10:22:35;;;;;;;0.30;0.30;;;13.60;99.90;;;;;;5013077;28;20064;-78
2022/11/06 10:25:16;;;;;;;0.40;0.40;;;13.60;99.90;;;;;;5017819;28;20054;-77
2022/11/06 10:28:03;;;;;;;0.30;0.30;;;13.40;99.90;;;;;;5010327;28;20050;-78
2022/11/06 10:31:18;;;;;;;0.30;0.30;;;13.40;99.90;;;;;;5008511;28;20140;-78
2022/11/06 10:33:59;;;;;;;0.30;0.30;;;13.40;99.90;;;;;;5014012;28;20049;-78
2022/11/06 10:36:39;;;;;;;0.28;0.28;;;13.50;99.90;;;;;;5011827;28;20433;-79
2022/11/06 10:39:11;;;;;;;0.40;0.40;;;13.40;99.90;;;;;;5004911;28;20045;-76
2022/11/06 10:41:38;;;;;;;0.50;0.50;;;13.50;99.90;;;;;;4986514;28;20052;-77
2022/11/06 10:44:26;;;;;;;0.47;0.47;;;13.50;99.90;;;;;;5015673;28;20076;-76
2022/11/06 10:47:00;;;;;;;0.30;0.30;;;13.50;99.90;;;;;;5011669;28;20050;-77
2022/11/06 10:49:38;;;;;;;;;;;13.40;99.90;;;;;;5007477;28;20057;-77
2022/11/06 10:52:14;;;;;;;0.50;0.50;;;13.40;99.90;;;;;;5034927;28;19925;-74
2022/11/06 10:55:09;;;;;;;0.40;0.40;;;13.40;99.90;;;;;;5026332;28;20555;-76
2022/11/06 10:58:07;;;;;;;0.38;0.38;;;13.40;99.90;;;;;;5037672;28;20056;-76
2022/11/06 11:00:34;;;;;;;0.77;0.60;;;13.40;99.90;;;;;;5037947;28;20068;-74
2022/11/06 11:03:02;;;;;;;0.50;0.50;;;13.30;99.90;;;;;;5002452;28;20088;-75
2022/11/06 11:05:39;;;;;;;0.70;0.50;;;13.30;99.90;;;;;;5022512;28;20049;-75
2022/11/06 11:08:06;;;;;;;0.57;0.40;;;13.30;99.90;;;;;;5033501;28;20050;-74
2022/11/06 11:10:34;;;;;;;0.65;0.63;;;13.20;99.90;;;;;;5034575;28;20063;-74
2022/11/06 11:13:02;;;;;;;0.40;0.40;;;13.10;99.90;;;;;;5031104;28;20136;-73
2022/11/06 11:15:43;;;;;;;0.60;0.50;;;13.10;99.90;;;;;;5024559;28;20492;-74
2022/11/06 11:18:21;;;;;;;0.50;0.50;;;13.10;99.90;;;;;;5008213;28;20080;-76
2022/11/06 11:20:49;;;;;;;0.50;0.40;;;13.10;99.90;;;;;;5024961;28;20053;-77
2022/11/06 11:23:17;;;;;;;0.50;0.50;;;13.10;99.90;;;;;;5006261;28;20094;-77
2022/11/06 11:25:46;;;;;;;0.47;0.47;;;13.20;99.90;;;;;;5020538;28;20061;-74
2022/11/06 11:28:25;;;;;;;1.17;0.30;;;13.30;99.90;;;;;;5021404;28;20049;-76
2022/11/06 11:31:13;;;;;;;0.68;0.60;;;13.30;99.90;;;;;;5028863;28;20817;-76
2022/11/06 11:33:46;;;;;;;1.02;0.60;;;13.40;99.90;;;;;;5034023;28;20053;-76
2022/11/06 11:36:13;;;;;;;0.93;0.50;;;13.40;99.90;;;;;;5021550;28;20087;-76
2022/11/06 11:38:40;;;;;;;0.55;0.40;;;13.50;99.90;;;;;;5034129;28;20281;-77
2022/11/06 11:41:21;;;;;;;1.08;0.70;;;13.50;99.90;;;;;;5006660;28;20053;-77
2022/11/06 11:44:12;;;;;;;0.88;0.50;;;13.40;99.90;;;;;;5018063;28;20409;-76
2022/11/06 11:46:50;;;;;;;1.05;0.60;;;13.40;99.90;;;;;;5007608;28;20826;-77
2022/11/06 11:49:33;;;;;;;1.50;0.80;;;13.30;99.90;;;;;;5019175;28;20112;-77
2022/11/06 11:52:00;;;;;;;1.38;0.75;;;13.30;99.90;;;;;;5012485;28;20453;-76
2022/11/06 11:54:31;;;;;;;1.30;0.50;;;13.30;99.90;;;;;;5015220;28;20045;-76
2022/11/06 11:57:15;;;;;;;1.13;0.63;;;13.20;99.90;;;;;;5025193;28;20059;-76
2022/11/06 11:59:59;;;;;;;0.85;0.55;;;13.20;99.90;;;;;;5003011;28;20172;-76
2022/11/06 12:02:33;;;;;;;1.73;0.80;;;13.20;99.90;;;;;;5032697;28;20056;-77
2022/11/06 12:05:02;;;;;;;1.48;0.82;;;13.20;99.90;;;;;;5023634;28;20400;-77
2022/11/06 12:07:34;;;;;;;1.60;0.80;;;13.20;99.90;;;;;;5024532;28;20053;-78
2022/11/06 12:10:02;;;;;;;2.78;1.17;;;13.20;99.90;;;;;;5014167;28;20098;-77
2022/11/06 12:12:34;;;;;;;2.47;0.85;;;13.20;99.90;;;;;;5030135;28;20216;-77
2022/11/06 12:15:07;;;;;;;2.75;1.08;;;13.20;99.90;;;;;;5039249;28;20268;-77
2022/11/06 12:17:36;;;;;;;1.60;1.00;;;13.20;99.90;;;;;;5026201;28;20064;-78
2022/11/06 12:20:08;;;;;;;2.05;1.13;;;13.20;99.90;;;;;;5022965;28;20482;-77
2022/11/06 12:22:36;;;;;;;1.50;0.98;;;13.20;99.90;;;;;;5024684;28;20055;-78
2022/11/06 12:25:23;;;;;;;1.85;1.15;;;13.20;99.90;;;;;;5016512;28;20042;-78
2022/11/06 12:27:52;;;;;;;1.75;1.10;;;13.20;99.90;;;;;;5015097;28;20457;-78
2022/11/06 12:30:19;;;;;;;2.75;1.20;;;13.30;99.90;;;;;;5013886;28;20080;-86
2022/11/06 12:32:51;;;;;;;2.25;1.00;;;13.30;99.90;;;;;;5008031;28;20160;-82
2022/11/06 12:35:24;;;;;;;1.90;1.00;;;13.30;99.90;;;;;;5031722;28;20445;-83
2022/11/06 12:38:13;;;;;;;3.60;1.00;;;13.40;99.90;;;;;;5017273;28;20065;-84
2022/11/06 12:40:42;;;;;;;1.67;1.05;;;13.40;99.90;;;;;;5036703;28;20053;-86
2022/11/06 12:43:30;;;;;;;1.30;0.82;;;13.50;99.90;;;;;;5029736;28;20052;-84
2022/11/06 12:46:24;;;;;;;1.88;0.80;;;13.50;99.90;;;;;;5020181;28;20084;-85
2022/11/06 12:49:09;;;;;;;2.15;1.10;;;13.60;99.90;;;;;;5030099;28;20480;-85
2022/11/06 12:51:57;;;;;;;1.40;0.88;;;13.60;99.90;;;;;;5021913;28;20500;-84
2022/11/06 12:54:24;;;;;;;2.53;1.00;;;13.70;99.90;;;;;;5032246;28;20742;-84
2022/11/06 12:57:08;;;;;;;1.13;0.75;;;13.70;99.90;;;;;;5033677;28;20406;-85
2022/11/06 13:00:10;;;;;;;1.38;0.65;;;13.80;99.90;;;;;;5034396;28;20060;-83
2022/11/06 13:03:01;;;;;;;1.25;0.80;;;13.80;99.90;;;;;;5015479;28;20416;-85
2022/11/06 13:05:54;;;;;;;1.27;0.80;;;13.90;99.90;;;;;;5038352;28;20041;-84
2022/11/06 13:08:35;;;;;;;1.52;0.80;;;13.90;99.90;;;;;;5032287;28;20049;-84
2022/11/06 13:11:23;;;;;;;2.33;1.00;;;14.00;99.90;;;;;;5021303;28;20049;-84
2022/11/06 13:14:11;;;;;;;1.27;0.70;;;14.00;99.90;;;;;;5022013;28;20068;-83
2022/11/06 13:17:00;;;;;;;1.60;0.70;;;14.00;99.90;;;;;;5034908;28;20505;-85
2022/11/06 13:19:32;;;;;;;1.48;0.82;;;13.90;99.90;;;;;;5017140;28;20053;-83
2022/11/06 13:22:08;;;;;;;2.00;0.90;;;13.90;99.90;;;;;;5020760;28;20049;-84
2022/11/06 13:24:50;;;;;;;1.52;0.80;;;14.00;99.90;;;;;;5029250;28;20053;-84